»·PEaware :: N525SA KONP-KPDX

N525SA :: KONP-KPDX

FLIGHT INFORMATION

Flight Status: Arrived
Operator: Privately registered:
United States
More flights under this callsign
Pilot: Utku A. (15598)
Aircraft: SOCATA TBM-900
(TBM9)
More flights by this aircraft type
Origin: KONP Newport Mun
United States
Destination: KPDX Portland Intl
United States
More flights between these airports :: More routes between these airports
Route: ONP V182 UBG
File this flight plan on PilotEdge
Remarks:
Altitude:
(Current/Filed)
15,000ft
Speed:
(Current/Filed)
280kts
Departed: 29-Oct-18 06:38 PM
Arrived: 29-Oct-18 07:13 PM
Distance/Time
Traveled:
87nm/0:35
Distance/Time
To Go:
Arrived

Flight Plot

Page will automatically refresh every two minutes.

Flight plan parsing failed; only flown route is shown


Map Options




Map Legend


Flown Route
Filed Route
Departure Airport
Arrival Airport
Navaid (VOR, NDB)
Fix

Horizontal Profiles

Position Reports

Time Latitude Longitude Heading Altitude Ground
Speed
29-Oct-18 18:25 44.578734 -124.061464 216 122ft 0kts
29-Oct-18 18:26 44.578734 -124.061464 216 122ft 0kts
29-Oct-18 18:27 44.578734 -124.061464 216 122ft 0kts
29-Oct-18 18:28 44.578734 -124.061464 216 122ft 0kts
29-Oct-18 18:29 44.578734 -124.061464 216 122ft 0kts
29-Oct-18 18:30 44.578734 -124.061464 216 122ft 0kts
29-Oct-18 18:31 44.578734 -124.061464 216 122ft 0kts
29-Oct-18 18:32 44.578734 -124.061464 216 122ft 0kts
29-Oct-18 18:33 44.578734 -124.061464 216 122ft 0kts
29-Oct-18 18:34 44.578865 -124.061400 89 122ft 1kts
29-Oct-18 18:35 44.578897 -124.060394 85 126ft 5kts
29-Oct-18 18:36 44.580866 -124.060089 358 127ft 5kts
29-Oct-18 18:37 44.583513 -124.060263 357 127ft 14kts
29-Oct-18 18:38 44.586759 -124.060304 89 133ft 0kts
29-Oct-18 18:39 44.586762 -124.059493 105 135ft 8kts
29-Oct-18 18:40 44.564594 -124.060611 212 1183ft 122kts
29-Oct-18 18:41 44.539584 -124.078653 112 3022ft 150kts
29-Oct-18 18:42 44.568228 -124.060045 357 5140ft 151kts
29-Oct-18 18:43 44.600509 -124.033854 58 7233ft 146kts
29-Oct-18 18:44 44.625476 -123.992207 40 9101ft 142kts
29-Oct-18 18:45 44.654300 -123.952700 39 11081ft 150kts
29-Oct-18 18:46 44.684390 -123.911435 38 13159ft 155kts
29-Oct-18 18:47 44.715514 -123.868737 37 14983ft 165kts
29-Oct-18 18:48 44.757091 -123.811652 39 15045ft 241kts
29-Oct-18 18:49 44.807536 -123.742103 39 15019ft 263kts
29-Oct-18 18:50 44.860407 -123.669041 39 15004ft 269kts
29-Oct-18 18:51 44.914014 -123.594767 39 14997ft 270kts
29-Oct-18 18:52 44.967172 -123.520908 39 14989ft 271kts
29-Oct-18 18:53 45.020709 -123.446291 39 14981ft 271kts
29-Oct-18 18:54 45.074451 -123.371184 39 14911ft 274kts
29-Oct-18 18:55 45.126084 -123.298844 40 14155ft 275kts
29-Oct-18 18:56 45.180212 -123.222789 40 13336ft 275kts
29-Oct-18 18:57 45.234998 -123.145588 41 12062ft 283kts
29-Oct-18 18:58 45.289078 -123.069108 41 10672ft 248kts
29-Oct-18 18:59 45.333535 -123.006118 41 9129ft 214kts
29-Oct-18 19:00 45.371509 -122.948782 44 7667ft 203kts
29-Oct-18 19:01 45.423255 -122.933058 4 6172ft 192kts
29-Oct-18 19:02 45.476217 -122.925148 4 4677ft 191kts
29-Oct-18 19:03 45.528893 -122.918011 4 3176ft 190kts
29-Oct-18 19:04 45.578238 -122.911594 4 2977ft 173kts
29-Oct-18 19:05 45.626323 -122.905279 4 2979ft 174kts
29-Oct-18 19:06 45.674510 -122.898932 4 2978ft 174kts
29-Oct-18 19:07 45.699760 -122.860173 117 2962ft 158kts
29-Oct-18 19:08 45.678472 -122.807140 118 2975ft 150kts
29-Oct-18 19:09 45.659506 -122.759343 118 2623ft 119kts
29-Oct-18 19:10 45.643575 -122.719108 119 2030ft 133kts
29-Oct-18 19:11 45.627744 -122.678976 119 1364ft 101kts
29-Oct-18 19:12 45.614964 -122.646915 118 922ft 92kts
29-Oct-18 19:13 45.602450 -122.615143 119 395ft 88kts
29-Oct-18 19:14 45.591233 -122.586564 118 32ft 50kts
29-Oct-18 19:15 45.586283 -122.576489 241 32ft 14kts
29-Oct-18 19:16 45.588111 -122.582506 230 32ft 8kts
29-Oct-18 19:17 45.588632 -122.585652 247 32ft 6kts
29-Oct-18 19:18 45.588477 -122.585848 209 32ft 0kts
29-Oct-18 19:19 45.588477 -122.585848 209 32ft 0kts
29-Oct-18 19:20 45.588477 -122.585848 209 32ft 0kts

Navigation Log

Ident Type
Flight plan parsing failed, navigation log unavailable